createdAt,value
2023-03-29T00:00:57.325Z,79.86
2023-03-29T00:03:59.269Z,78.96
2023-03-29T00:07:00.351Z,78.75
2023-03-29T00:10:00.298Z,80.28
2023-03-29T00:13:00.370Z,79.18
2023-03-29T00:16:00.338Z,75.27
2023-03-29T00:19:00.333Z,76.31
2023-03-29T00:22:00.352Z,76.05
2023-03-29T00:25:00.314Z,74.88
2023-03-29T00:28:00.327Z,75.17
2023-03-29T00:31:00.568Z,74.70
2023-03-29T00:34:00.333Z,74.64
2023-03-29T00:37:04.313Z,74.08
2023-03-29T00:40:04.354Z,73.49
2023-03-29T00:43:04.309Z,73.59
2023-03-29T00:46:04.365Z,73.43
2023-03-29T00:49:06.290Z,74.79
2023-03-29T00:52:06.314Z,74.17
2023-03-29T00:55:08.308Z,74.48
2023-03-29T00:58:09.338Z,75.45
2023-03-29T01:01:17.349Z,74.55
2023-03-29T01:04:30.326Z,74.80
2023-03-29T01:07:35.370Z,75.60
2023-03-29T01:10:45.298Z,74.79
2023-03-29T01:14:17.309Z,75.42
2023-03-29T01:17:17.334Z,76.16
2023-03-29T01:20:20.305Z,74.98
2023-03-29T01:23:44.306Z,76.38
2023-03-29T01:26:58.318Z,76.18
2023-03-29T01:30:03.291Z,75.77
2023-03-29T01:33:06.421Z,75.40
2023-03-29T01:36:41.340Z,75.82
2023-03-29T01:39:41.349Z,75.27
2023-03-29T01:42:45.311Z,75.04
2023-03-29T01:46:30.386Z,75.87
2023-03-29T01:49:56.330Z,76.71
2023-03-29T01:53:01.338Z,77.55
2023-03-29T01:56:05.289Z,78.32
2023-03-29T01:59:09.371Z,78.17
2023-03-29T02:02:12.337Z,79.10
2023-03-29T02:05:12.321Z,81.03
2023-03-29T02:08:14.335Z,81.46
2023-03-29T02:11:14.304Z,82.23
2023-03-29T02:14:14.306Z,82.71
2023-03-29T02:17:35.363Z,82.21
2023-03-29T02:20:36.323Z,82.95
2023-03-29T02:23:47.308Z,84.09
2023-03-29T02:26:47.294Z,83.81
2023-03-29T02:29:47.314Z,82.35
2023-03-29T02:32:52.305Z,83.12
2023-03-29T02:36:15.337Z,83.17
2023-03-29T02:39:16.298Z,83.73
2023-03-29T02:42:17.291Z,80.42
2023-03-29T02:45:17.334Z,81.29
2023-03-29T02:48:19.343Z,78.54
2023-03-29T02:51:25.299Z,74.79
2023-03-29T02:54:33.321Z,74.42
2023-03-29T02:57:35.323Z,75.14
2023-03-29T03:00:35.307Z,74.09
2023-03-29T03:03:35.394Z,74.71
2023-03-29T03:06:35.295Z,74.68
2023-03-29T03:09:36.339Z,75.18
2023-03-29T03:12:36.316Z,75.34
2023-03-29T03:15:37.366Z,74.94
2023-03-29T03:18:37.336Z,76.17
2023-03-29T03:21:37.311Z,76.32
2023-03-29T03:24:39.290Z,73.30
2023-03-29T03:27:40.328Z,73.13
2023-03-29T03:30:41.305Z,69.84
2023-03-29T03:33:45.293Z,69.24
2023-03-29T03:36:46.302Z,70.17
2023-03-29T03:39:46.288Z,69.06
2023-03-29T03:42:46.282Z,67.99
2023-03-29T03:45:46.390Z,65.89
2023-03-29T03:48:46.297Z,66.74
2023-03-29T03:51:50.392Z,66.74
2023-03-29T03:54:53.300Z,63.99
2023-03-29T03:57:54.266Z,65.34
2023-03-29T04:00:54.362Z,64.02
2023-03-29T04:03:56.483Z,66.40
2023-03-29T04:06:57.262Z,65.39
2023-03-29T04:09:59.274Z,62.28
2023-03-29T04:13:00.312Z,63.93
2023-03-29T04:16:01.893Z,63.00
2023-03-29T04:19:02.301Z,60.16
2023-03-29T04:22:02.290Z,57.86
2023-03-29T04:25:02.281Z,59.77
2023-03-29T04:28:04.290Z,61.44
2023-03-29T04:34:04.275Z,63.00
2023-03-29T04:37:05.334Z,65.13
2023-03-29T04:40:07.305Z,66.56
2023-03-29T04:43:10.294Z,67.47
2023-03-29T04:46:14.366Z,69.01
2023-03-29T04:49:15.293Z,66.67
2023-03-29T04:52:15.321Z,63.42
2023-03-29T04:55:15.334Z,61.32
2023-03-29T04:58:16.347Z,61.69
2023-03-29T05:01:16.309Z,61.45
2023-03-29T05:04:16.337Z,61.49
2023-03-29T05:07:17.335Z,59.77
2023-03-29T05:10:18.280Z,59.97
2023-03-29T05:13:18.285Z,59.34
2023-03-29T05:16:18.386Z,60.84
2023-03-29T05:19:20.324Z,60.55
2023-03-29T05:22:20.312Z,59.68
2023-03-29T05:25:21.308Z,58.02
2023-03-29T05:28:21.278Z,56.29
2023-03-29T05:31:21.353Z,55.70
2023-03-29T05:34:21.285Z,55.67
2023-03-29T05:37:22.305Z,54.16
2023-03-29T05:40:23.285Z,55.59
2023-03-29T05:43:24.265Z,55.48
2023-03-29T05:46:24.327Z,53.84
2023-03-29T05:49:24.308Z,54.66
2023-03-29T05:52:25.307Z,53.16
2023-03-29T05:55:19.345Z,53.44
2023-03-29T05:58:19.343Z,54.44
2023-03-29T06:01:25.328Z,53.56
2023-03-29T06:04:25.445Z,53.13
2023-03-29T06:07:26.291Z,53.62
2023-03-29T06:10:27.433Z,51.72
2023-03-29T06:13:29.315Z,52.31
2023-03-29T06:16:30.441Z,51.64
2023-03-29T06:19:30.573Z,53.44
2023-03-29T06:25:26.323Z,54.81
2023-03-29T06:28:27.291Z,54.90
2023-03-29T06:31:27.346Z,53.78
2023-03-29T06:34:27.268Z,53.40
2023-03-29T06:37:28.367Z,53.52
2023-03-29T06:40:34.337Z,52.72
2023-03-29T06:43:34.303Z,52.29
2023-03-29T06:46:36.340Z,52.58
2023-03-29T06:49:36.288Z,51.32
2023-03-29T06:52:36.293Z,51.04
2023-03-29T06:55:38.297Z,49.69
2023-03-29T06:58:39.279Z,49.17
2023-03-29T07:01:44.405Z,48.29
2023-03-29T07:04:45.465Z,48.59
2023-03-29T07:08:01.305Z,49.10
2023-03-29T07:11:05.480Z,47.86
2023-03-29T07:14:05.319Z,44.75
2023-03-29T07:17:07.286Z,45.55
2023-03-29T07:20:08.376Z,45.54
2023-03-29T07:23:08.334Z,44.97
2023-03-29T07:26:09.266Z,44.81
2023-03-29T07:29:09.315Z,42.18
2023-03-29T07:32:09.318Z,40.50
2023-03-29T07:35:11.289Z,39.10
2023-03-29T07:38:12.280Z,37.60
2023-03-29T07:41:12.281Z,36.47
2023-03-29T07:44:18.022Z,36.57
2023-03-29T07:47:17.270Z,40.25
2023-03-29T07:50:18.275Z,40.46
2023-03-29T07:53:19.309Z,39.87
2023-03-29T07:56:20.403Z,39.40
2023-03-29T07:59:26.300Z,37.88
2023-03-29T08:02:26.332Z,37.32
2023-03-29T08:05:39.878Z,38.48
2023-03-29T08:08:34.284Z,36.40
2023-03-29T08:11:14.141Z,35.60
2023-03-29T08:14:04.296Z,34.55
2023-03-29T08:16:52.353Z,33.84
2023-03-29T08:19:53.333Z,33.86
2023-03-29T08:22:55.281Z,32.82
2023-03-29T08:25:55.289Z,32.96
2023-03-29T08:29:07.035Z,32.88
2023-03-29T08:32:07.349Z,30.44
2023-03-29T08:35:11.317Z,29.65
2023-03-29T08:38:12.267Z,30.58
2023-03-29T08:41:12.524Z,30.19
2023-03-29T08:44:37.731Z,31.36
2023-03-29T08:48:07.371Z,31.32
2023-03-29T08:51:17.337Z,29.52
2023-03-29T08:54:25.376Z,30.45
2023-03-29T08:57:34.280Z,29.81
2023-03-29T09:00:53.326Z,31.95
2023-03-29T09:03:59.364Z,31.89
2023-03-29T09:07:00.316Z,31.64
2023-03-29T09:12:56.310Z,32.79
2023-03-29T09:16:10.366Z,34.37
2023-03-29T09:19:21.701Z,33.14
2023-03-29T09:22:45.426Z,32.35
2023-03-29T09:26:00.339Z,34.90
2023-03-29T09:29:30.268Z,34.70
2023-03-29T09:33:12.438Z,34.83
2023-03-29T09:36:39.327Z,34.19
2023-03-29T09:39:40.323Z,33.54
2023-03-29T09:42:42.327Z,32.04
2023-03-29T09:45:41.116Z,31.95
2023-03-29T09:48:45.372Z,31.86
2023-03-29T09:51:47.311Z,31.92
2023-03-29T09:54:47.258Z,33.70
2023-03-29T09:57:51.352Z,33.64
2023-03-29T10:00:55.421Z,33.36
2023-03-29T10:03:56.283Z,32.53
2023-03-29T10:06:58.286Z,32.94
2023-03-29T10:09:59.287Z,30.54
2023-03-29T10:13:04.317Z,30.64
2023-03-29T10:16:32.311Z,29.51
2023-03-29T10:19:35.363Z,26.95
2023-03-29T10:22:40.292Z,26.21
2023-03-29T10:25:43.310Z,26.27
2023-03-29T10:28:46.905Z,26.19
2023-03-29T10:31:49.295Z,24.31
2023-03-29T10:34:49.288Z,24.91
2023-03-29T10:37:53.351Z,24.39
2023-03-29T10:41:30.239Z,23.41
2023-03-29T10:44:49.284Z,23.43
2023-03-29T10:47:49.354Z,24.86
2023-03-29T10:50:53.369Z,24.36
2023-03-29T10:53:54.313Z,26.09
2023-03-29T10:57:01.354Z,25.49
2023-03-29T11:00:37.510Z,24.74
2023-03-29T11:04:06.369Z,25.01
2023-03-29T11:07:19.339Z,24.71
2023-03-29T11:10:37.347Z,22.99
2023-03-29T11:13:46.293Z,22.12
2023-03-29T11:17:01.334Z,22.31
2023-03-29T11:20:44.332Z,21.50
2023-03-29T11:24:14.303Z,22.13
2023-03-29T11:27:52.329Z,21.14
2023-03-29T11:30:57.387Z,19.97
2023-03-29T11:34:12.343Z,21.01
2023-03-29T11:37:28.364Z,20.60
2023-03-29T11:40:47.528Z,20.49
2023-03-29T11:44:11.023Z,19.36
2023-03-29T11:47:13.449Z,20.00
2023-03-29T11:50:23.006Z,18.82
2023-03-29T11:53:30.360Z,19.21
2023-03-29T11:56:40.463Z,20.41
2023-03-29T11:59:46.322Z,19.70
2023-03-29T12:03:06.428Z,20.02
2023-03-29T12:06:15.290Z,20.65
2023-03-29T12:09:35.332Z,21.38
2023-03-29T12:13:00.277Z,21.55
2023-03-29T12:19:33.322Z,22.64
2023-03-29T12:22:33.345Z,21.99
2023-03-29T12:25:38.368Z,23.22
2023-03-29T12:29:13.304Z,22.53
2023-03-29T12:32:24.376Z,23.12
2023-03-29T12:35:41.337Z,22.00
2023-03-29T12:38:43.326Z,22.20
2023-03-29T12:41:55.332Z,23.90
2023-03-29T12:45:00.400Z,23.77
2023-03-29T12:48:02.358Z,24.48
2023-03-29T12:51:09.312Z,23.66
2023-03-29T12:54:18.366Z,24.34
2023-03-29T12:57:41.345Z,22.82
2023-03-29T13:00:46.326Z,23.20
2023-03-29T13:04:01.403Z,22.62
2023-03-29T13:07:02.295Z,22.73
2023-03-29T13:10:09.349Z,21.50
2023-03-29T13:13:09.323Z,23.13
2023-03-29T13:16:09.390Z,23.69
2023-03-29T13:19:21.348Z,23.08
2023-03-29T13:22:36.345Z,22.13
2023-03-29T13:25:54.336Z,23.01
2023-03-29T13:29:10.314Z,23.91
2023-03-29T13:32:34.327Z,22.94
2023-03-29T13:35:34.405Z,23.13
2023-03-29T13:38:28.838Z,22.93
2023-03-29T13:41:40.333Z,23.66
2023-03-29T13:48:35.366Z,23.29
2023-03-29T13:49:25.067Z,23.41
2023-03-29T13:51:42.313Z,24.28
2023-03-29T13:54:46.320Z,25.93
2023-03-29T13:57:56.372Z,24.90
2023-03-29T14:01:06.360Z,25.89
2023-03-29T14:04:12.355Z,24.37
2023-03-29T14:07:13.366Z,25.49
2023-03-29T14:10:13.322Z,26.75
2023-03-29T14:13:13.333Z,26.73
2023-03-29T14:16:20.391Z,25.74
2023-03-29T14:19:27.363Z,26.35
2023-03-29T14:22:30.361Z,25.67
2023-03-29T14:25:32.366Z,26.41
2023-03-29T14:28:40.352Z,28.01
2023-03-29T14:31:45.371Z,28.91
2023-03-29T14:34:45.314Z,26.10
2023-03-29T14:37:45.305Z,27.45
2023-03-29T14:40:45.327Z,26.91
2023-03-29T14:43:45.364Z,27.29
2023-03-29T14:46:45.443Z,27.08
2023-03-29T14:49:45.315Z,28.03
2023-03-29T14:52:47.217Z,28.00
2023-03-29T14:55:47.338Z,29.74
2023-03-29T14:58:49.345Z,29.14
2023-03-29T15:01:57.374Z,29.17
2023-03-29T15:04:57.321Z,29.88
2023-03-29T15:07:57.371Z,29.83
2023-03-29T15:10:57.313Z,33.41
2023-03-29T15:13:50.413Z,30.45
2023-03-29T15:16:56.307Z,30.94
2023-03-29T15:19:56.337Z,32.31
2023-03-29T15:23:12.338Z,33.03
2023-03-29T15:26:20.322Z,32.36
2023-03-29T15:29:30.293Z,33.71
2023-03-29T15:32:35.376Z,34.43
2023-03-29T15:35:37.312Z,34.81
2023-03-29T15:38:43.937Z,35.06
2023-03-29T15:41:45.349Z,35.62
2023-03-29T15:44:51.388Z,35.53
2023-03-29T15:47:51.354Z,35.79
2023-03-29T15:50:51.334Z,35.28
2023-03-29T15:53:51.297Z,34.88
2023-03-29T15:56:55.684Z,34.63
2023-03-29T15:59:56.315Z,34.81
2023-03-29T16:03:05.327Z,34.58
2023-03-29T16:06:05.514Z,34.54
2023-03-29T16:09:05.314Z,34.46
2023-03-29T16:12:07.302Z,34.77
2023-03-29T16:15:07.355Z,34.75
2023-03-29T16:18:07.430Z,35.17
2023-03-29T16:21:08.008Z,35.19
2023-03-29T16:24:08.317Z,35.24
2023-03-29T16:27:09.302Z,35.42
2023-03-29T16:30:09.352Z,35.86
2023-03-29T16:33:12.351Z,36.54
2023-03-29T16:36:12.541Z,36.08
2023-03-29T16:39:12.341Z,36.50
2023-03-29T16:42:12.344Z,37.03
2023-03-29T16:45:12.321Z,37.13
2023-03-29T16:48:12.339Z,37.63
2023-03-29T16:51:12.345Z,38.56
2023-03-29T16:54:12.311Z,38.46
2023-03-29T16:57:13.451Z,38.65
2023-03-29T17:00:13.296Z,38.80
2023-03-29T17:03:13.423Z,39.82
2023-03-29T17:06:13.342Z,40.88
2023-03-29T17:09:14.348Z,41.83
2023-03-29T17:12:14.350Z,41.00
2023-03-29T17:15:14.363Z,41.87
2023-03-29T17:18:15.341Z,42.86
2023-03-29T17:21:15.286Z,42.42
2023-03-29T17:24:16.350Z,42.40
2023-03-29T17:27:16.297Z,43.66
2023-03-29T17:30:17.324Z,43.68
2023-03-29T17:33:19.828Z,43.34
2023-03-29T17:36:21.340Z,44.31
2023-03-29T17:39:22.310Z,44.43
2023-03-29T17:42:22.351Z,44.75
2023-03-29T17:45:23.301Z,45.15
2023-03-29T17:48:23.361Z,45.64
2023-03-29T17:51:23.304Z,46.14
2023-03-29T17:54:23.361Z,46.11
2023-03-29T17:57:23.361Z,45.98
2023-03-29T18:00:27.377Z,46.66
2023-03-29T18:03:27.430Z,46.73
2023-03-29T18:06:28.308Z,46.91
2023-03-29T18:09:30.235Z,47.26
2023-03-29T18:12:30.319Z,47.32
2023-03-29T18:15:30.307Z,46.82
2023-03-29T18:18:30.289Z,47.11
2023-03-29T18:21:32.324Z,47.13
2023-03-29T18:24:32.329Z,47.63
2023-03-29T18:27:32.348Z,47.20
2023-03-29T18:30:32.310Z,47.49
2023-03-29T18:33:32.356Z,47.47
2023-03-29T18:36:32.336Z,47.85
2023-03-29T18:39:32.323Z,47.82
2023-03-29T18:42:32.347Z,47.83
2023-03-29T18:45:32.346Z,48.20
2023-03-29T18:48:32.357Z,48.16
2023-03-29T18:51:34.328Z,48.50
2023-03-29T18:54:34.322Z,47.85
2023-03-29T18:57:34.458Z,47.96
2023-03-29T19:00:34.324Z,48.58
2023-03-29T19:03:34.524Z,48.64
2023-03-29T19:06:34.339Z,48.72
2023-03-29T19:09:34.355Z,48.37
2023-03-29T19:12:34.342Z,48.48
2023-03-29T19:15:35.334Z,49.05
2023-03-29T19:18:35.348Z,49.61
2023-03-29T19:21:35.368Z,49.42
2023-03-29T19:24:35.342Z,49.83
2023-03-29T19:27:35.340Z,50.07
2023-03-29T19:30:36.383Z,49.54
2023-03-29T19:33:36.386Z,49.95
2023-03-29T19:36:36.354Z,49.22
2023-03-29T19:39:29.811Z,49.46
2023-03-29T19:42:29.322Z,49.64
2023-03-29T19:45:30.321Z,50.18
2023-03-29T19:48:31.378Z,50.72
2023-03-29T19:51:33.329Z,50.34
2023-03-29T19:54:33.293Z,50.70
2023-03-29T19:57:33.410Z,51.44
2023-03-29T20:00:34.409Z,51.45
2023-03-29T20:03:34.411Z,52.54
2023-03-29T20:06:34.305Z,52.06
2023-03-29T20:09:34.444Z,52.52
2023-03-29T20:12:34.281Z,52.78
2023-03-29T20:15:34.319Z,53.49
2023-03-29T20:18:34.317Z,53.44
2023-03-29T20:21:34.298Z,53.25
2023-03-29T20:24:35.309Z,53.63
2023-03-29T20:27:36.302Z,54.06
2023-03-29T20:30:36.336Z,53.45
2023-03-29T20:33:36.323Z,54.07
2023-03-29T20:36:37.421Z,54.03
2023-03-29T20:39:38.315Z,53.75
2023-03-29T20:42:41.296Z,54.34
2023-03-29T20:45:50.108Z,53.99
2023-03-29T20:49:01.281Z,54.49
2023-03-29T20:52:10.281Z,55.86
2023-03-29T20:55:10.345Z,55.39
2023-03-29T20:58:10.355Z,56.64
2023-03-29T21:01:11.441Z,56.40
2023-03-29T21:04:11.299Z,56.88
2023-03-29T21:07:13.326Z,56.62
2023-03-29T21:10:14.356Z,57.53
2023-03-29T21:13:14.310Z,58.17
2023-03-29T21:16:14.463Z,57.46
2023-03-29T21:19:14.331Z,59.25
2023-03-29T21:22:14.330Z,57.60
2023-03-29T21:25:14.280Z,58.04
2023-03-29T21:28:14.272Z,59.12
2023-03-29T21:31:17.376Z,59.15
2023-03-29T21:34:17.298Z,59.35
2023-03-29T21:37:17.321Z,59.54
2023-03-29T21:40:19.291Z,59.32
2023-03-29T21:43:19.340Z,60.47
2023-03-29T21:46:19.286Z,60.22
2023-03-29T21:49:19.331Z,60.21
2023-03-29T21:52:19.324Z,60.34
2023-03-29T21:55:19.304Z,59.85
2023-03-29T21:58:19.337Z,60.79
2023-03-29T22:01:19.402Z,60.84
2023-03-29T22:04:33.144Z,60.87
2023-03-29T22:07:36.289Z,60.97
2023-03-29T22:10:36.333Z,60.88
2023-03-29T22:13:38.304Z,61.38
2023-03-29T22:16:38.356Z,61.79
2023-03-29T22:19:38.323Z,62.73
2023-03-29T22:22:38.325Z,62.21
2023-03-29T22:25:38.340Z,62.79
2023-03-29T22:28:38.354Z,63.47
2023-03-29T22:31:39.484Z,62.50
2023-03-29T22:34:39.341Z,63.48
2023-03-29T22:37:39.327Z,63.90
2023-03-29T22:40:40.347Z,63.54
2023-03-29T22:43:40.325Z,64.91
2023-03-29T22:46:40.308Z,64.18
2023-03-29T22:49:40.289Z,64.94
2023-03-29T22:52:41.308Z,65.13
2023-03-29T22:55:41.328Z,64.85
2023-03-29T22:58:41.282Z,64.75
2023-03-29T23:01:41.356Z,64.91
2023-03-29T23:04:42.409Z,65.16
2023-03-29T23:07:43.321Z,65.70
2023-03-29T23:10:43.311Z,66.05
2023-03-29T23:13:43.326Z,65.85
2023-03-29T23:16:44.322Z,65.98
2023-03-29T23:19:44.307Z,66.94
2023-03-29T23:22:46.307Z,66.94
2023-03-29T23:25:46.314Z,66.54
2023-03-29T23:28:47.274Z,67.06
2023-03-29T23:31:47.353Z,67.51
2023-03-29T23:34:47.330Z,67.60
2023-03-29T23:37:47.277Z,67.25
2023-03-29T23:40:47.321Z,67.98
2023-03-29T23:43:49.318Z,68.19
2023-03-29T23:46:49.367Z,67.61
2023-03-29T23:49:52.337Z,68.30
2023-03-29T23:52:53.326Z,68.43
2023-03-29T23:55:54.272Z,68.08
2023-03-29T23:58:54.341Z,68.53
